createdAt,value
2019-06-08T00:00:05.531Z,15.31
2019-06-08T00:02:39.332Z,15.15
2019-06-08T00:05:14.717Z,15.27
2019-06-08T00:07:48.750Z,15.25
2019-06-08T00:10:25.612Z,15.36
2019-06-08T00:12:59.490Z,15.45
2019-06-08T00:15:33.321Z,15.38
2019-06-08T00:18:07.474Z,15.34
2019-06-08T00:20:41.203Z,15.16
2019-06-08T00:23:15.721Z,15.28
2019-06-08T00:25:49.850Z,15.38
2019-06-08T00:28:24.757Z,15.24
2019-06-08T00:31:01.963Z,14.99
2019-06-08T00:33:35.609Z,15.19
2019-06-08T00:36:09.765Z,15.19
2019-06-08T00:38:43.568Z,15.25
2019-06-08T00:41:17.231Z,15.06
2019-06-08T00:43:51.024Z,14.98
2019-06-08T00:46:25.726Z,14.78
2019-06-08T00:48:59.751Z,14.91
2019-06-08T00:51:35.473Z,14.96
2019-06-08T00:54:10.619Z,14.98
2019-06-08T00:56:45.614Z,15.05
2019-06-08T00:59:20.473Z,15.02
2019-06-08T01:01:54.181Z,15.12
2019-06-08T01:04:29.280Z,15.10
2019-06-08T01:07:03.203Z,15.03
2019-06-08T01:09:41.491Z,15.06
2019-06-08T01:12:16.848Z,15.07
2019-06-08T01:14:50.704Z,14.88
2019-06-08T01:17:25.126Z,14.98
2019-06-08T01:19:58.921Z,14.98
2019-06-08T01:22:33.790Z,15.04
2019-06-08T01:25:09.127Z,14.98
2019-06-08T01:27:43.175Z,15.00
2019-06-08T01:30:17.798Z,15.00
2019-06-08T01:32:51.941Z,14.97
2019-06-08T01:35:26.888Z,14.89
2019-06-08T01:38:00.870Z,14.82
2019-06-08T01:40:34.977Z,14.74
2019-06-08T01:43:08.557Z,14.79
2019-06-08T01:45:42.270Z,14.66
2019-06-08T01:48:20.390Z,14.65
2019-06-08T01:50:52.844Z,14.71
2019-06-08T01:53:26.901Z,14.67
2019-06-08T01:56:00.890Z,14.71
2019-06-08T01:58:36.349Z,14.64
2019-06-08T02:01:14.235Z,14.52
2019-06-08T02:03:47.916Z,14.54
2019-06-08T02:06:21.719Z,14.53
2019-06-08T02:08:55.400Z,14.54
2019-06-08T02:11:30.854Z,14.44
2019-06-08T02:14:06.589Z,14.45
2019-06-08T02:16:42.587Z,14.39
2019-06-08T02:19:17.374Z,14.41
2019-06-08T02:21:54.333Z,14.42
2019-06-08T02:24:29.223Z,14.40
2019-06-08T02:27:04.065Z,14.41
2019-06-08T02:29:39.972Z,14.38
2019-06-08T02:32:13.870Z,14.36
2019-06-08T02:34:48.050Z,14.32
2019-06-08T02:37:21.813Z,14.29
2019-06-08T02:39:55.682Z,14.35
2019-06-08T02:42:31.144Z,14.31
2019-06-08T02:45:06.347Z,14.28
2019-06-08T02:47:41.162Z,14.44
2019-06-08T02:50:16.739Z,14.33
2019-06-08T02:52:52.756Z,14.32
2019-06-08T02:55:28.762Z,14.32
2019-06-08T02:58:02.987Z,14.31
2019-06-08T03:00:39.779Z,14.23
2019-06-08T03:03:15.714Z,14.14
2019-06-08T03:05:51.872Z,14.19
2019-06-08T03:08:27.137Z,14.12
2019-06-08T03:11:01.721Z,14.19
2019-06-08T03:13:39.477Z,14.15
2019-06-08T03:16:14.035Z,14.19
2019-06-08T03:18:47.759Z,13.98
2019-06-08T03:21:22.591Z,14.12
2019-06-08T03:23:57.930Z,14.33
2019-06-08T03:26:32.151Z,14.21
2019-06-08T03:29:07.697Z,14.22
2019-06-08T03:31:54.415Z,14.21
2019-06-08T03:34:20.949Z,14.11
2019-06-08T03:36:57.650Z,14.17
2019-06-08T03:39:31.722Z,14.21
2019-06-08T03:42:07.685Z,14.22
2019-06-08T03:44:43.006Z,14.18
2019-06-08T03:47:19.396Z,14.12
2019-06-08T03:49:57.373Z,14.05
2019-06-08T03:52:28.570Z,14.13
2019-06-08T03:55:02.611Z,14.21
2019-06-08T03:57:38.061Z,14.21
2019-06-08T04:00:13.957Z,14.34
2019-06-08T04:02:50.131Z,14.28
2019-06-08T04:05:25.190Z,14.27
2019-06-08T04:08:00.302Z,14.46
2019-06-08T04:10:37.462Z,14.31
2019-06-08T04:13:12.048Z,14.36
2019-06-08T04:15:47.355Z,14.36
2019-06-08T04:18:21.309Z,14.32
2019-06-08T04:20:57.018Z,14.34
2019-06-08T04:23:31.540Z,14.38
2019-06-08T04:26:07.286Z,14.41
2019-06-08T04:28:42.517Z,14.57
2019-06-08T04:31:17.547Z,14.72
2019-06-08T04:33:51.401Z,14.63
2019-06-08T04:36:25.101Z,14.62
2019-06-08T04:38:59.898Z,14.74
2019-06-08T04:41:36.042Z,14.73
2019-06-08T04:44:10.384Z,14.85
2019-06-08T04:46:47.159Z,14.77
2019-06-08T04:49:20.617Z,14.89
2019-06-08T04:51:54.353Z,15.00
2019-06-08T04:54:28.187Z,14.97
2019-06-08T04:57:01.953Z,14.98
2019-06-08T04:59:36.160Z,14.96
2019-06-08T05:02:15.168Z,14.82
2019-06-08T05:04:49.678Z,14.81
2019-06-08T05:07:23.495Z,14.73
2019-06-08T05:09:59.118Z,14.82
2019-06-08T05:12:33.853Z,14.93
2019-06-08T05:15:10.202Z,14.82
2019-06-08T05:17:45.405Z,14.91
2019-06-08T05:20:19.999Z,15.00
2019-06-08T05:22:53.797Z,14.88
2019-06-08T05:25:27.809Z,14.95
2019-06-08T05:28:03.082Z,15.08
2019-06-08T05:30:39.320Z,15.16
2019-06-08T05:34:19.558Z,15.25
2019-06-08T05:36:55.283Z,15.20
2019-06-08T05:39:29.499Z,15.43
2019-06-08T05:42:03.456Z,15.55
2019-06-08T05:44:37.680Z,15.52
2019-06-08T05:47:13.383Z,15.89
2019-06-08T05:49:48.001Z,16.38
2019-06-08T05:52:22.249Z,16.07
2019-06-08T05:54:56.121Z,15.88
2019-06-08T05:57:29.940Z,16.22
2019-06-08T06:00:08.821Z,16.23
2019-06-08T06:02:40.178Z,16.07
2019-06-08T06:05:14.735Z,16.08
2019-06-08T06:07:49.049Z,16.08
2019-06-08T06:10:22.971Z,16.19
2019-06-08T06:12:58.533Z,16.21
2019-06-08T06:15:32.352Z,16.15
2019-06-08T06:18:06.120Z,16.21
2019-06-08T06:20:40.987Z,16.65
2019-06-08T06:23:15.928Z,17.15
2019-06-08T06:25:51.764Z,17.20
2019-06-08T06:28:30.686Z,17.78
2019-06-08T06:31:09.228Z,18.14
2019-06-08T06:33:43.814Z,20.89
2019-06-08T06:36:18.092Z,21.99
2019-06-08T06:38:52.250Z,20.75
2019-06-08T06:41:25.939Z,19.91
2019-06-08T06:43:59.985Z,18.86
2019-06-08T06:46:46.174Z,17.93
2019-06-08T06:49:20.648Z,18.57
2019-06-08T06:51:54.700Z,20.06
2019-06-08T06:54:28.899Z,19.74
2019-06-08T06:57:04.159Z,20.56
2019-06-08T06:59:40.652Z,20.45
2019-06-08T07:02:14.402Z,21.30
2019-06-08T07:04:49.878Z,22.39
2019-06-08T07:07:23.698Z,23.37
2019-06-08T07:10:00.687Z,22.92
2019-06-08T07:12:41.147Z,22.46
2019-06-08T07:15:18.429Z,22.36
2019-06-08T07:17:54.600Z,22.50
2019-06-08T07:20:28.861Z,22.53
2019-06-08T07:23:05.539Z,22.75
2019-06-08T07:25:39.393Z,22.89
2019-06-08T07:28:13.224Z,22.94
2019-06-08T07:30:48.867Z,22.92
2019-06-08T07:33:23.888Z,22.85
2019-06-08T07:35:59.856Z,22.74
2019-06-08T07:38:35.764Z,22.15
2019-06-08T07:41:09.710Z,21.85
2019-06-08T07:43:45.167Z,20.79
2019-06-08T07:46:18.965Z,20.47
2019-06-08T07:48:52.666Z,21.20
2019-06-08T07:51:26.623Z,21.83
2019-06-08T07:54:00.900Z,20.77
2019-06-08T07:56:35.732Z,20.08
2019-06-08T07:59:11.277Z,21.22
2019-06-08T08:01:45.924Z,21.51
2019-06-08T08:04:19.902Z,21.62
2019-06-08T08:06:54.532Z,21.32
2019-06-08T08:09:29.045Z,21.84
2019-06-08T08:12:03.321Z,20.63
2019-06-08T08:14:37.027Z,20.40
2019-06-08T08:17:10.992Z,20.42
2019-06-08T08:19:45.059Z,19.85
2019-06-08T08:22:25.703Z,19.84
2019-06-08T08:25:01.294Z,20.62
2019-06-08T08:27:32.610Z,20.76
2019-06-08T08:30:08.405Z,21.40
2019-06-08T08:32:42.395Z,21.18
2019-06-08T08:35:18.420Z,21.36
2019-06-08T08:37:55.499Z,21.37
2019-06-08T08:40:28.214Z,21.87
2019-06-08T08:43:03.879Z,21.59
2019-06-08T08:45:37.841Z,22.03
2019-06-08T08:48:24.486Z,21.91
2019-06-08T08:50:48.465Z,22.23
2019-06-08T08:53:22.460Z,21.81
2019-06-08T08:55:59.629Z,21.39
2019-06-08T08:58:32.372Z,21.62
2019-06-08T09:01:08.189Z,22.15
2019-06-08T09:03:41.668Z,21.51
2019-06-08T09:06:15.402Z,21.73
2019-06-08T09:08:49.393Z,21.71
2019-06-08T09:11:23.400Z,21.94
2019-06-08T09:14:05.112Z,22.22
2019-06-08T09:16:34.841Z,22.30
2019-06-08T09:19:08.843Z,22.12
2019-06-08T09:21:42.767Z,22.21
2019-06-08T09:24:18.627Z,22.14
2019-06-08T09:26:54.351Z,22.00
2019-06-08T09:29:31.555Z,21.75
2019-06-08T09:32:08.175Z,22.18
2019-06-08T09:34:42.309Z,21.66
2019-06-08T09:37:18.455Z,22.25
2019-06-08T09:39:53.935Z,22.54
2019-06-08T09:42:28.452Z,22.39
2019-06-08T09:45:05.374Z,21.79
2019-06-08T09:47:39.139Z,21.92
2019-06-08T09:50:14.791Z,21.65
2019-06-08T09:52:48.545Z,21.96
2019-06-08T09:55:24.124Z,22.03
2019-06-08T09:58:05.033Z,22.73
2019-06-08T10:00:37.689Z,23.09
2019-06-08T10:03:12.114Z,23.09
2019-06-08T10:05:49.387Z,22.33
2019-06-08T10:08:23.160Z,21.88
2019-06-08T10:10:59.455Z,22.00
2019-06-08T10:13:34.303Z,22.48
2019-06-08T10:16:10.202Z,22.27
2019-06-08T10:18:43.943Z,22.38
2019-06-08T10:21:20.923Z,22.55
2019-06-08T10:23:54.848Z,22.60
2019-06-08T10:26:29.685Z,22.96
2019-06-08T10:29:20.160Z,22.52
2019-06-08T10:31:55.109Z,22.44
2019-06-08T10:34:30.142Z,22.42
2019-06-08T10:37:09.902Z,22.87
2019-06-08T10:39:39.488Z,22.30
2019-06-08T10:42:14.427Z,23.34
2019-06-08T10:44:48.250Z,23.11
2019-06-08T10:47:23.192Z,23.40
2019-06-08T10:50:01.741Z,23.81
2019-06-08T10:52:34.821Z,23.95
2019-06-08T10:55:11.899Z,24.33
2019-06-08T10:57:47.588Z,24.26
2019-06-08T11:00:24.784Z,24.09
2019-06-08T11:03:01.601Z,23.58
2019-06-08T11:05:34.169Z,23.14
2019-06-08T11:08:12.906Z,24.12
2019-06-08T11:10:47.456Z,25.06
2019-06-08T11:13:20.801Z,25.18
2019-06-08T11:15:54.507Z,24.75
2019-06-08T11:18:30.788Z,24.94
2019-06-08T11:21:10.244Z,24.44
2019-06-08T11:23:42.565Z,25.06
2019-06-08T11:26:23.912Z,25.65
2019-06-08T11:28:54.105Z,25.08
2019-06-08T11:31:31.251Z,24.44
2019-06-08T11:34:03.971Z,25.02
2019-06-08T11:36:39.616Z,24.37
2019-06-08T11:39:13.519Z,24.33
2019-06-08T11:41:48.543Z,24.54
2019-06-08T11:44:22.564Z,24.50
2019-06-08T11:46:58.316Z,24.78
2019-06-08T11:49:32.212Z,24.07
2019-06-08T11:52:06.853Z,24.06
2019-06-08T11:54:41.344Z,24.59
2019-06-08T11:57:17.657Z,22.96
2019-06-08T11:59:52.827Z,23.46
2019-06-08T12:02:28.455Z,23.59
2019-06-08T12:05:02.105Z,23.24
2019-06-08T12:07:38.075Z,22.91
2019-06-08T12:10:14.183Z,22.79
2019-06-08T12:12:48.010Z,23.21
2019-06-08T12:15:23.427Z,23.16
2019-06-08T12:17:58.721Z,22.78
2019-06-08T12:20:33.678Z,22.18
2019-06-08T12:23:10.035Z,21.91
2019-06-08T12:25:43.749Z,22.06
2019-06-08T12:28:17.962Z,22.18
2019-06-08T12:30:51.678Z,22.62
2019-06-08T12:33:25.475Z,22.43
2019-06-08T12:36:00.109Z,22.59
2019-06-08T12:38:34.734Z,23.22
2019-06-08T12:41:10.776Z,22.45
2019-06-08T12:43:47.839Z,22.73
2019-06-08T12:46:21.608Z,23.07
2019-06-08T12:48:58.828Z,23.26
2019-06-08T12:51:32.686Z,23.67
2019-06-08T12:54:08.475Z,23.65
2019-06-08T12:56:42.237Z,23.98
2019-06-08T12:59:20.774Z,24.07
2019-06-08T13:01:52.957Z,24.64
2019-06-08T13:04:28.625Z,24.42
2019-06-08T13:07:04.842Z,24.14
2019-06-08T13:09:38.536Z,24.89
2019-06-08T13:12:13.176Z,24.16
2019-06-08T13:14:47.748Z,23.67
2019-06-08T13:17:22.439Z,23.84
2019-06-08T13:19:58.059Z,23.44
2019-06-08T13:22:50.380Z,24.02
2019-06-08T13:25:37.547Z,23.95
2019-06-08T13:27:59.604Z,23.46
2019-06-08T13:30:33.365Z,23.59
2019-06-08T13:33:08.141Z,23.08
2019-06-08T13:35:43.538Z,23.28
2019-06-08T13:38:19.650Z,23.37
2019-06-08T13:40:53.409Z,23.41
2019-06-08T13:43:27.258Z,23.02
2019-06-08T13:46:02.788Z,23.35
2019-06-08T13:48:37.604Z,22.68
2019-06-08T13:51:13.511Z,22.48
2019-06-08T13:53:47.837Z,22.71
2019-06-08T13:56:23.914Z,22.39
2019-06-08T13:58:58.255Z,22.71
2019-06-08T14:01:32.167Z,22.73
2019-06-08T14:04:05.922Z,22.83
2019-06-08T14:06:39.581Z,23.04
2019-06-08T14:09:14.321Z,22.82
2019-06-08T14:11:49.154Z,22.95
2019-06-08T14:14:24.045Z,22.79
2019-06-08T14:16:58.927Z,22.94
2019-06-08T14:19:32.925Z,22.33
2019-06-08T14:22:10.416Z,21.95
2019-06-08T14:24:42.255Z,21.58
2019-06-08T14:27:17.132Z,21.75
2019-06-08T14:29:51.357Z,21.88
2019-06-08T14:32:25.965Z,21.80
2019-06-08T14:35:02.707Z,21.58
2019-06-08T14:37:35.036Z,21.40
2019-06-08T14:40:10.803Z,21.26
2019-06-08T14:42:44.897Z,21.77
2019-06-08T14:45:20.794Z,22.14
2019-06-08T14:47:54.681Z,21.91
2019-06-08T14:50:30.624Z,21.49
2019-06-08T14:53:05.088Z,21.78
2019-06-08T14:55:39.209Z,21.98
2019-06-08T14:58:13.066Z,21.85
2019-06-08T15:00:47.953Z,21.46
2019-06-08T15:03:21.719Z,21.49
2019-06-08T15:05:57.740Z,21.26
2019-06-08T15:08:32.679Z,21.50
2019-06-08T15:11:08.079Z,21.74
2019-06-08T15:13:42.569Z,21.84
2019-06-08T15:16:18.186Z,22.02
2019-06-08T15:18:52.202Z,22.10
2019-06-08T15:21:30.127Z,21.98
2019-06-08T15:24:08.080Z,22.15
2019-06-08T15:26:45.155Z,22.12
2019-06-08T15:29:19.201Z,22.03
2019-06-08T15:31:53.091Z,22.33
2019-06-08T15:34:30.117Z,22.21
2019-06-08T15:37:04.830Z,22.48
2019-06-08T15:39:39.556Z,22.49
2019-06-08T15:42:13.281Z,22.09
2019-06-08T15:44:48.304Z,22.20
2019-06-08T15:47:22.264Z,21.80
2019-06-08T15:49:58.791Z,21.95
2019-06-08T15:52:34.223Z,22.08
2019-06-08T15:55:11.193Z,22.25
2019-06-08T15:57:43.901Z,22.14
2019-06-08T16:00:18.581Z,22.11
2019-06-08T16:02:52.338Z,22.17
2019-06-08T16:05:27.745Z,22.13
2019-06-08T16:08:01.576Z,22.37
2019-06-08T16:10:35.485Z,21.97
2019-06-08T16:13:09.108Z,22.21
2019-06-08T16:15:43.005Z,22.00
2019-06-08T16:18:20.376Z,22.09
2019-06-08T16:20:54.088Z,22.00
2019-06-08T16:23:29.874Z,21.93
2019-06-08T16:26:04.022Z,21.76
2019-06-08T16:28:38.450Z,21.65
2019-06-08T16:31:14.200Z,21.68
2019-06-08T16:33:48.354Z,21.60
2019-06-08T16:36:22.491Z,21.69
2019-06-08T16:38:56.229Z,21.56
2019-06-08T16:41:30.028Z,21.61
2019-06-08T16:44:06.907Z,21.66
2019-06-08T16:46:39.195Z,21.82
2019-06-08T16:49:14.984Z,21.69
2019-06-08T16:51:48.852Z,21.50
2019-06-08T16:54:23.698Z,21.37
2019-06-08T16:57:09.335Z,21.26
2019-06-08T16:59:34.686Z,21.29
2019-06-08T17:02:09.836Z,21.26
2019-06-08T17:04:43.680Z,21.19
2019-06-08T17:07:17.481Z,21.01
2019-06-08T17:09:51.262Z,20.95
2019-06-08T17:12:26.885Z,21.01
2019-06-08T17:15:00.574Z,20.97
2019-06-08T17:17:34.357Z,20.89
2019-06-08T17:20:08.917Z,20.96
2019-06-08T17:22:44.353Z,20.88
2019-06-08T17:25:19.442Z,20.98
2019-06-08T17:27:56.845Z,20.82
2019-06-08T17:30:30.740Z,20.73
2019-06-08T17:33:06.208Z,20.81
2019-06-08T17:35:42.106Z,20.84
2019-06-08T17:38:19.036Z,20.73
2019-06-08T17:40:52.749Z,20.71
2019-06-08T17:43:26.558Z,20.69
2019-06-08T17:46:02.112Z,20.63
2019-06-08T17:48:36.479Z,20.48
2019-06-08T17:51:10.958Z,20.33
2019-06-08T17:53:45.161Z,20.29
2019-06-08T17:56:19.981Z,20.22
2019-06-08T17:58:54.822Z,20.10
2019-06-08T18:01:28.581Z,20.00
2019-06-08T18:04:03.913Z,19.89
2019-06-08T18:06:39.920Z,19.83
2019-06-08T18:09:13.206Z,19.82
2019-06-08T18:11:48.017Z,19.86
2019-06-08T18:14:23.480Z,19.64
2019-06-08T18:16:59.083Z,19.62
2019-06-08T18:19:37.971Z,19.60
2019-06-08T18:22:15.483Z,19.60
2019-06-08T18:24:47.949Z,19.50
2019-06-08T18:27:21.667Z,19.48
2019-06-08T18:29:58.080Z,19.48
2019-06-08T18:32:31.392Z,19.45
2019-06-08T18:35:07.693Z,19.40
2019-06-08T18:37:43.773Z,19.19
2019-06-08T18:40:19.626Z,19.19
2019-06-08T18:42:53.817Z,19.16
2019-06-08T18:45:30.395Z,19.08
2019-06-08T18:48:07.126Z,19.03
2019-06-08T18:50:42.196Z,19.01
2019-06-08T18:53:19.113Z,18.98
2019-06-08T18:55:58.172Z,19.05
2019-06-08T18:58:32.019Z,18.56
2019-06-08T19:01:08.281Z,17.88
2019-06-08T19:03:44.768Z,17.65
2019-06-08T19:06:18.718Z,17.44
2019-06-08T19:08:53.637Z,17.11
2019-06-08T19:11:28.575Z,16.99
2019-06-08T19:14:05.280Z,16.69
2019-06-08T19:16:43.604Z,16.57
2019-06-08T19:19:15.662Z,16.65
2019-06-08T19:21:50.593Z,16.64
2019-06-08T19:24:24.220Z,16.68
2019-06-08T19:27:00.868Z,16.50
2019-06-08T19:29:34.633Z,16.53
2019-06-08T19:32:08.614Z,16.51
2019-06-08T19:34:43.900Z,16.41
2019-06-08T19:37:18.686Z,16.40
2019-06-08T19:39:52.384Z,16.36
2019-06-08T19:42:37.122Z,16.23
2019-06-08T19:45:05.432Z,16.22
2019-06-08T19:47:38.405Z,16.31
2019-06-08T19:50:14.215Z,16.19
2019-06-08T19:52:52.232Z,16.18
2019-06-08T19:55:24.963Z,16.06
2019-06-08T19:57:58.990Z,15.93
2019-06-08T20:00:32.984Z,15.79
2019-06-08T20:03:08.069Z,15.73
2019-06-08T20:05:43.182Z,15.57
2019-06-08T20:08:17.639Z,15.75
2019-06-08T20:10:53.694Z,15.55
2019-06-08T20:13:27.556Z,15.57
2019-06-08T20:16:02.683Z,15.46
2019-06-08T20:18:37.527Z,15.44
2019-06-08T20:21:12.834Z,15.25
2019-06-08T20:23:48.230Z,15.29
2019-06-08T20:26:22.435Z,15.20
2019-06-08T20:29:11.586Z,15.18
2019-06-08T20:31:31.913Z,15.07
2019-06-08T20:34:49.692Z,14.97
2019-06-08T20:37:24.035Z,14.97
2019-06-08T20:40:09.791Z,15.00
2019-06-08T20:42:34.270Z,14.96
2019-06-08T20:45:09.452Z,14.86
2019-06-08T20:47:44.410Z,14.89
2019-06-08T20:50:20.921Z,14.80
2019-06-08T20:52:58.031Z,14.74
2019-06-08T20:55:31.713Z,14.80
2019-06-08T20:58:07.916Z,14.57
2019-06-08T21:00:43.750Z,14.56
2019-06-08T21:03:18.778Z,14.56
2019-06-08T21:05:54.362Z,14.58
2019-06-08T21:08:28.372Z,14.64
2019-06-08T21:11:02.660Z,14.54
2019-06-08T21:13:37.703Z,14.49
2019-06-08T21:16:11.473Z,14.57
2019-06-08T21:18:46.752Z,14.44
2019-06-08T21:21:20.623Z,14.35
2019-06-08T21:23:59.784Z,14.32
2019-06-08T21:26:32.273Z,14.44
2019-06-08T21:29:08.266Z,14.45
2019-06-08T21:31:44.425Z,14.40
2019-06-08T21:34:18.872Z,14.35
2019-06-08T21:36:55.810Z,14.34
2019-06-08T21:39:29.661Z,14.26
2019-06-08T21:42:04.764Z,14.33
2019-06-08T21:44:38.597Z,14.23
2019-06-08T21:47:12.425Z,14.22
2019-06-08T21:49:48.733Z,14.38
2019-06-08T21:52:23.292Z,14.22
2019-06-08T21:54:59.324Z,14.21
2019-06-08T21:57:33.272Z,14.20
2019-06-08T22:00:34.610Z,14.21
2019-06-08T22:02:47.983Z,14.23
2019-06-08T22:05:22.354Z,14.21
2019-06-08T22:07:58.877Z,14.14
2019-06-08T22:10:32.914Z,14.04
2019-06-08T22:13:08.620Z,14.02
2019-06-08T22:15:42.341Z,14.00
2019-06-08T22:18:18.321Z,14.06
2019-06-08T22:20:52.962Z,14.07
2019-06-08T22:23:27.314Z,14.06
2019-06-08T22:26:01.511Z,14.02
2019-06-08T22:28:37.576Z,14.08
2019-06-08T22:31:10.717Z,14.00
2019-06-08T22:33:48.147Z,13.96
2019-06-08T22:36:22.341Z,13.93
2019-06-08T22:38:58.802Z,13.93
2019-06-08T22:41:32.855Z,13.92
2019-06-08T22:44:08.400Z,14.00
2019-06-08T22:46:42.261Z,13.81
2019-06-08T22:49:19.555Z,13.82
2019-06-08T22:51:58.061Z,13.76
2019-06-08T22:54:32.195Z,13.75
2019-06-08T22:57:08.202Z,13.64
2019-06-08T22:59:43.228Z,13.72
2019-06-08T23:02:18.236Z,13.66
2019-06-08T23:04:52.374Z,13.62
2019-06-08T23:07:32.456Z,13.59
2019-06-08T23:10:04.219Z,13.53
2019-06-08T23:12:38.257Z,13.48
2019-06-08T23:15:13.652Z,13.46
2019-06-08T23:17:48.001Z,13.52
2019-06-08T23:20:21.956Z,13.48
2019-06-08T23:22:58.619Z,13.47
2019-06-08T23:25:33.761Z,13.48
2019-06-08T23:28:09.869Z,13.48
2019-06-08T23:30:44.879Z,13.47
2019-06-08T23:33:19.145Z,13.42
2019-06-08T23:36:30.546Z,13.41
2019-06-08T23:38:30.579Z,13.53
2019-06-08T23:41:05.670Z,13.42
2019-06-08T23:43:39.599Z,13.46
2019-06-08T23:46:13.409Z,13.52
2019-06-08T23:48:48.377Z,13.51
2019-06-08T23:51:23.588Z,13.49
2019-06-08T23:53:59.660Z,13.47
2019-06-08T23:56:32.590Z,13.47
2019-06-08T23:59:07.333Z,13.47
